sensor_id;sensor_type;location;lat;lon;timestamp;P1;durP1;ratioP1;P2;durP2;ratioP2
16892;SDS011;8563;52.242;9.098;2022-09-17T00:02:15;4.03;;;1.30;;
16892;SDS011;8563;52.242;9.098;2022-09-17T00:04:48;5.33;;;1.20;;
16892;SDS011;8563;52.242;9.098;2022-09-17T00:07:21;5.20;;;1.43;;
16892;SDS011;8563;52.242;9.098;2022-09-17T00:09:53;5.23;;;1.40;;
16892;SDS011;8563;52.242;9.098;2022-09-17T00:12:26;8.10;;;1.47;;
16892;SDS011;8563;52.242;9.098;2022-09-17T00:15:00;5.43;;;1.33;;
16892;SDS011;8563;52.242;9.098;2022-09-17T00:17:33;6.83;;;1.70;;
16892;SDS011;8563;52.242;9.098;2022-09-17T00:20:06;9.87;;;1.77;;
16892;SDS011;8563;52.242;9.098;2022-09-17T00:22:40;7.93;;;1.73;;
16892;SDS011;8563;52.242;9.098;2022-09-17T00:25:12;3.93;;;1.40;;
16892;SDS011;8563;52.242;9.098;2022-09-17T00:27:45;6.70;;;1.83;;
16892;SDS011;8563;52.242;9.098;2022-09-17T00:30:20;11.20;;;2.03;;
16892;SDS011;8563;52.242;9.098;2022-09-17T00:32:53;7.40;;;1.80;;
16892;SDS011;8563;52.242;9.098;2022-09-17T00:35:27;7.67;;;1.80;;
16892;SDS011;8563;52.242;9.098;2022-09-17T00:38:00;4.97;;;1.67;;
16892;SDS011;8563;52.242;9.098;2022-09-17T00:40:33;9.63;;;2.20;;
16892;SDS011;8563;52.242;9.098;2022-09-17T00:43:09;9.53;;;1.90;;
16892;SDS011;8563;52.242;9.098;2022-09-17T00:45:44;9.07;;;2.20;;
16892;SDS011;8563;52.242;9.098;2022-09-17T00:48:17;10.17;;;2.03;;
16892;SDS011;8563;52.242;9.098;2022-09-17T00:50:49;9.87;;;2.03;;
16892;SDS011;8563;52.242;9.098;2022-09-17T00:53:23;7.60;;;2.10;;
16892;SDS011;8563;52.242;9.098;2022-09-17T00:55:58;12.50;;;2.47;;
16892;SDS011;8563;52.242;9.098;2022-09-17T00:58:32;10.83;;;2.53;;
16892;SDS011;8563;52.242;9.098;2022-09-17T01:01:08;8.67;;;2.23;;
16892;SDS011;8563;52.242;9.098;2022-09-17T01:03:41;7.50;;;1.90;;
16892;SDS011;8563;52.242;9.098;2022-09-17T01:06:16;11.17;;;2.10;;
16892;SDS011;8563;52.242;9.098;2022-09-17T01:09:05;9.53;;;2.50;;
16892;SDS011;8563;52.242;9.098;2022-09-17T01:11:43;9.77;;;2.00;;
16892;SDS011;8563;52.242;9.098;2022-09-17T01:14:21;7.10;;;2.00;;
16892;SDS011;8563;52.242;9.098;2022-09-17T01:17:02;9.63;;;2.23;;
16892;SDS011;8563;52.242;9.098;2022-09-17T01:19:49;8.30;;;2.30;;
16892;SDS011;8563;52.242;9.098;2022-09-17T01:22:29;12.00;;;2.40;;
16892;SDS011;8563;52.242;9.098;2022-09-17T01:25:09;6.60;;;1.80;;
16892;SDS011;8563;52.242;9.098;2022-09-17T01:27:54;9.40;;;2.10;;
16892;SDS011;8563;52.242;9.098;2022-09-17T01:30:51;14.43;;;2.50;;
16892;SDS011;8563;52.242;9.098;2022-09-17T01:33:27;13.13;;;2.80;;
16892;SDS011;8563;52.242;9.098;2022-09-17T01:36:05;14.63;;;2.30;;
16892;SDS011;8563;52.242;9.098;2022-09-17T01:38:42;10.30;;;2.43;;
16892;SDS011;8563;52.242;9.098;2022-09-17T01:41:17;10.73;;;2.30;;
16892;SDS011;8563;52.242;9.098;2022-09-17T01:43:54;11.07;;;2.30;;
16892;SDS011;8563;52.242;9.098;2022-09-17T01:46:30;7.80;;;1.97;;
16892;SDS011;8563;52.242;9.098;2022-09-17T01:49:04;12.33;;;2.40;;
16892;SDS011;8563;52.242;9.098;2022-09-17T01:51:39;10.73;;;2.33;;
16892;SDS011;8563;52.242;9.098;2022-09-17T01:54:15;10.50;;;2.40;;
16892;SDS011;8563;52.242;9.098;2022-09-17T01:56:49;10.67;;;2.20;;
16892;SDS011;8563;52.242;9.098;2022-09-17T01:59:24;13.07;;;2.47;;
16892;SDS011;8563;52.242;9.098;2022-09-17T02:02:02;9.77;;;2.13;;
16892;SDS011;8563;52.242;9.098;2022-09-17T02:04:37;10.33;;;2.50;;
16892;SDS011;8563;52.242;9.098;2022-09-17T02:07:13;10.67;;;2.47;;
16892;SDS011;8563;52.242;9.098;2022-09-17T02:09:50;8.33;;;2.17;;
16892;SDS011;8563;52.242;9.098;2022-09-17T02:12:28;8.60;;;1.87;;
16892;SDS011;8563;52.242;9.098;2022-09-17T02:15:04;12.43;;;3.03;;
16892;SDS011;8563;52.242;9.098;2022-09-17T02:17:41;11.87;;;2.47;;
16892;SDS011;8563;52.242;9.098;2022-09-17T02:20:15;10.77;;;1.97;;
16892;SDS011;8563;52.242;9.098;2022-09-17T02:22:49;11.80;;;2.07;;
16892;SDS011;8563;52.242;9.098;2022-09-17T02:25:24;8.97;;;1.87;;
16892;SDS011;8563;52.242;9.098;2022-09-17T02:28:00;8.03;;;2.13;;
16892;SDS011;8563;52.242;9.098;2022-09-17T02:30:34;10.13;;;2.33;;
16892;SDS011;8563;52.242;9.098;2022-09-17T02:33:08;10.40;;;1.73;;
16892;SDS011;8563;52.242;9.098;2022-09-17T02:35:42;7.53;;;2.07;;
16892;SDS011;8563;52.242;9.098;2022-09-17T02:38:20;8.87;;;1.70;;
16892;SDS011;8563;52.242;9.098;2022-09-17T02:41:00;9.63;;;2.20;;
16892;SDS011;8563;52.242;9.098;2022-09-17T02:43:34;8.40;;;2.03;;
16892;SDS011;8563;52.242;9.098;2022-09-17T02:46:13;11.90;;;2.40;;
16892;SDS011;8563;52.242;9.098;2022-09-17T02:51:43;10.53;;;2.10;;
16892;SDS011;8563;52.242;9.098;2022-09-17T02:54:19;7.40;;;1.90;;
16892;SDS011;8563;52.242;9.098;2022-09-17T02:56:56;8.10;;;1.90;;
16892;SDS011;8563;52.242;9.098;2022-09-17T02:59:32;11.30;;;2.40;;
16892;SDS011;8563;52.242;9.098;2022-09-17T03:02:11;10.87;;;2.10;;
16892;SDS011;8563;52.242;9.098;2022-09-17T03:04:48;11.63;;;2.23;;
16892;SDS011;8563;52.242;9.098;2022-09-17T03:07:22;10.27;;;1.97;;
16892;SDS011;8563;52.242;9.098;2022-09-17T03:09:55;13.57;;;2.40;;
16892;SDS011;8563;52.242;9.098;2022-09-17T03:12:28;12.43;;;2.70;;
16892;SDS011;8563;52.242;9.098;2022-09-17T03:15:01;10.60;;;2.43;;
16892;SDS011;8563;52.242;9.098;2022-09-17T03:17:34;7.47;;;2.00;;
16892;SDS011;8563;52.242;9.098;2022-09-17T03:20:07;9.97;;;2.13;;
16892;SDS011;8563;52.242;9.098;2022-09-17T03:22:41;10.77;;;2.50;;
16892;SDS011;8563;52.242;9.098;2022-09-17T03:25:14;8.90;;;1.80;;
16892;SDS011;8563;52.242;9.098;2022-09-17T03:27:47;13.73;;;2.50;;
16892;SDS011;8563;52.242;9.098;2022-09-17T03:30:20;9.73;;;2.07;;
16892;SDS011;8563;52.242;9.098;2022-09-17T03:32:52;13.27;;;2.07;;
16892;SDS011;8563;52.242;9.098;2022-09-17T03:35:25;10.17;;;2.03;;
16892;SDS011;8563;52.242;9.098;2022-09-17T03:37:59;13.80;;;2.90;;
16892;SDS011;8563;52.242;9.098;2022-09-17T03:40:32;11.00;;;2.80;;
16892;SDS011;8563;52.242;9.098;2022-09-17T03:43:04;8.93;;;2.13;;
16892;SDS011;8563;52.242;9.098;2022-09-17T03:45:37;6.80;;;1.80;;
16892;SDS011;8563;52.242;9.098;2022-09-17T03:48:10;9.60;;;2.30;;
16892;SDS011;8563;52.242;9.098;2022-09-17T03:50:42;8.47;;;1.90;;
16892;SDS011;8563;52.242;9.098;2022-09-17T03:53:16;10.53;;;2.27;;
16892;SDS011;8563;52.242;9.098;2022-09-17T03:55:49;13.20;;;2.53;;
16892;SDS011;8563;52.242;9.098;2022-09-17T03:58:22;10.80;;;2.23;;
16892;SDS011;8563;52.242;9.098;2022-09-17T04:00:55;11.17;;;2.20;;
16892;SDS011;8563;52.242;9.098;2022-09-17T04:03:28;15.27;;;2.50;;
16892;SDS011;8563;52.242;9.098;2022-09-17T04:06:01;12.50;;;2.13;;
16892;SDS011;8563;52.242;9.098;2022-09-17T04:08:35;15.53;;;2.83;;
16892;SDS011;8563;52.242;9.098;2022-09-17T04:11:08;11.57;;;2.07;;
16892;SDS011;8563;52.242;9.098;2022-09-17T04:13:40;11.50;;;2.10;;
16892;SDS011;8563;52.242;9.098;2022-09-17T04:16:13;8.27;;;2.10;;
16892;SDS011;8563;52.242;9.098;2022-09-17T04:18:46;11.10;;;2.37;;
16892;SDS011;8563;52.242;9.098;2022-09-17T04:21:19;14.27;;;2.60;;
16892;SDS011;8563;52.242;9.098;2022-09-17T04:23:53;11.53;;;2.30;;
16892;SDS011;8563;52.242;9.098;2022-09-17T04:26:26;11.57;;;2.40;;
16892;SDS011;8563;52.242;9.098;2022-09-17T04:28:58;9.23;;;2.47;;
16892;SDS011;8563;52.242;9.098;2022-09-17T04:31:31;11.07;;;2.10;;
16892;SDS011;8563;52.242;9.098;2022-09-17T04:34:04;12.93;;;2.70;;
16892;SDS011;8563;52.242;9.098;2022-09-17T04:36:37;10.27;;;1.97;;
16892;SDS011;8563;52.242;9.098;2022-09-17T04:39:11;14.33;;;2.77;;
16892;SDS011;8563;52.242;9.098;2022-09-17T04:41:44;9.90;;;2.20;;
16892;SDS011;8563;52.242;9.098;2022-09-17T04:44:17;11.63;;;2.53;;
16892;SDS011;8563;52.242;9.098;2022-09-17T04:46:50;10.03;;;2.20;;
16892;SDS011;8563;52.242;9.098;2022-09-17T04:49:22;12.87;;;2.37;;
16892;SDS011;8563;52.242;9.098;2022-09-17T04:51:59;13.83;;;2.53;;
16892;SDS011;8563;52.242;9.098;2022-09-17T04:54:33;13.17;;;2.60;;
16892;SDS011;8563;52.242;9.098;2022-09-17T04:57:05;11.87;;;2.47;;
16892;SDS011;8563;52.242;9.098;2022-09-17T04:59:38;13.07;;;2.80;;
16892;SDS011;8563;52.242;9.098;2022-09-17T05:02:11;13.17;;;2.43;;
16892;SDS011;8563;52.242;9.098;2022-09-17T05:04:44;10.97;;;2.47;;
16892;SDS011;8563;52.242;9.098;2022-09-17T05:07:17;10.67;;;2.63;;
16892;SDS011;8563;52.242;9.098;2022-09-17T05:09:51;11.17;;;2.23;;
16892;SDS011;8563;52.242;9.098;2022-09-17T05:12:24;10.60;;;2.23;;
16892;SDS011;8563;52.242;9.098;2022-09-17T05:14:57;10.60;;;2.10;;
16892;SDS011;8563;52.242;9.098;2022-09-17T05:17:29;10.80;;;2.37;;
16892;SDS011;8563;52.242;9.098;2022-09-17T05:20:02;11.13;;;2.57;;
16892;SDS011;8563;52.242;9.098;2022-09-17T05:22:39;10.80;;;2.23;;
16892;SDS011;8563;52.242;9.098;2022-09-17T05:25:13;13.33;;;2.87;;
16892;SDS011;8563;52.242;9.098;2022-09-17T05:27:46;10.67;;;2.50;;
16892;SDS011;8563;52.242;9.098;2022-09-17T05:30:19;11.63;;;2.57;;
16892;SDS011;8563;52.242;9.098;2022-09-17T05:32:57;11.20;;;2.07;;
16892;SDS011;8563;52.242;9.098;2022-09-17T05:35:30;10.17;;;2.07;;
16892;SDS011;8563;52.242;9.098;2022-09-17T05:38:05;11.37;;;2.47;;
16892;SDS011;8563;52.242;9.098;2022-09-17T05:40:39;6.20;;;1.60;;
16892;SDS011;8563;52.242;9.098;2022-09-17T05:43:12;8.83;;;1.83;;
16892;SDS011;8563;52.242;9.098;2022-09-17T05:45:45;11.80;;;2.50;;
16892;SDS011;8563;52.242;9.098;2022-09-17T05:48:18;12.53;;;2.70;;
16892;SDS011;8563;52.242;9.098;2022-09-17T05:50:51;9.20;;;1.83;;
16892;SDS011;8563;52.242;9.098;2022-09-17T05:53:24;12.57;;;2.10;;
16892;SDS011;8563;52.242;9.098;2022-09-17T05:55:58;12.10;;;2.27;;
16892;SDS011;8563;52.242;9.098;2022-09-17T05:58:31;13.07;;;3.37;;
16892;SDS011;8563;52.242;9.098;2022-09-17T06:01:05;12.17;;;2.37;;
16892;SDS011;8563;52.242;9.098;2022-09-17T06:03:37;11.60;;;2.33;;
16892;SDS011;8563;52.242;9.098;2022-09-17T06:06:10;10.03;;;2.37;;
16892;SDS011;8563;52.242;9.098;2022-09-17T06:08:43;11.47;;;2.00;;
16892;SDS011;8563;52.242;9.098;2022-09-17T06:11:17;11.10;;;2.70;;
16892;SDS011;8563;52.242;9.098;2022-09-17T06:13:51;10.97;;;2.40;;
16892;SDS011;8563;52.242;9.098;2022-09-17T06:16:24;12.53;;;2.57;;
16892;SDS011;8563;52.242;9.098;2022-09-17T06:18:56;8.80;;;2.27;;
16892;SDS011;8563;52.242;9.098;2022-09-17T06:21:29;12.70;;;2.43;;
16892;SDS011;8563;52.242;9.098;2022-09-17T06:24:02;10.83;;;2.30;;
16892;SDS011;8563;52.242;9.098;2022-09-17T06:26:36;13.10;;;2.50;;
16892;SDS011;8563;52.242;9.098;2022-09-17T06:29:09;6.30;;;1.87;;
16892;SDS011;8563;52.242;9.098;2022-09-17T06:31:44;9.27;;;2.17;;
16892;SDS011;8563;52.242;9.098;2022-09-17T06:34:18;12.93;;;2.27;;
16892;SDS011;8563;52.242;9.098;2022-09-17T06:36:51;12.73;;;2.30;;
16892;SDS011;8563;52.242;9.098;2022-09-17T06:39:24;10.00;;;2.20;;
16892;SDS011;8563;52.242;9.098;2022-09-17T06:41:59;11.60;;;2.50;;
16892;SDS011;8563;52.242;9.098;2022-09-17T06:44:32;8.20;;;2.07;;
16892;SDS011;8563;52.242;9.098;2022-09-17T06:47:05;5.93;;;1.70;;
16892;SDS011;8563;52.242;9.098;2022-09-17T06:49:38;12.03;;;2.30;;
16892;SDS011;8563;52.242;9.098;2022-09-17T06:52:11;11.30;;;2.20;;
16892;SDS011;8563;52.242;9.098;2022-09-17T06:54:43;9.87;;;2.10;;
16892;SDS011;8563;52.242;9.098;2022-09-17T06:57:18;9.57;;;2.50;;
16892;SDS011;8563;52.242;9.098;2022-09-17T06:59:50;12.30;;;2.37;;
16892;SDS011;8563;52.242;9.098;2022-09-17T07:02:23;10.47;;;2.20;;
16892;SDS011;8563;52.242;9.098;2022-09-17T07:04:56;10.27;;;2.17;;
16892;SDS011;8563;52.242;9.098;2022-09-17T07:07:28;9.87;;;2.43;;
16892;SDS011;8563;52.242;9.098;2022-09-17T07:10:01;9.57;;;2.20;;
16892;SDS011;8563;52.242;9.098;2022-09-17T07:12:40;10.60;;;2.17;;
16892;SDS011;8563;52.242;9.098;2022-09-17T07:15:13;11.67;;;2.37;;
16892;SDS011;8563;52.242;9.098;2022-09-17T07:17:45;10.17;;;2.00;;
16892;SDS011;8563;52.242;9.098;2022-09-17T07:20:18;8.40;;;2.17;;
16892;SDS011;8563;52.242;9.098;2022-09-17T07:22:54;9.93;;;2.23;;
16892;SDS011;8563;52.242;9.098;2022-09-17T07:25:27;8.27;;;2.20;;
16892;SDS011;8563;52.242;9.098;2022-09-17T07:28:03;6.67;;;2.10;;
16892;SDS011;8563;52.242;9.098;2022-09-17T07:30:35;10.93;;;1.90;;
16892;SDS011;8563;52.242;9.098;2022-09-17T07:33:08;8.93;;;2.67;;
16892;SDS011;8563;52.242;9.098;2022-09-17T07:35:41;8.07;;;2.10;;
16892;SDS011;8563;52.242;9.098;2022-09-17T07:38:14;9.63;;;2.77;;
16892;SDS011;8563;52.242;9.098;2022-09-17T07:40:51;12.20;;;2.40;;
16892;SDS011;8563;52.242;9.098;2022-09-17T07:43:26;9.60;;;2.23;;
16892;SDS011;8563;52.242;9.098;2022-09-17T07:46:00;8.23;;;2.03;;
16892;SDS011;8563;52.242;9.098;2022-09-17T07:48:33;11.93;;;2.40;;
16892;SDS011;8563;52.242;9.098;2022-09-17T07:51:06;13.63;;;1.97;;
16892;SDS011;8563;52.242;9.098;2022-09-17T07:53:39;7.33;;;2.37;;
16892;SDS011;8563;52.242;9.098;2022-09-17T07:56:12;8.63;;;1.90;;
16892;SDS011;8563;52.242;9.098;2022-09-17T07:58:47;8.13;;;2.33;;
16892;SDS011;8563;52.242;9.098;2022-09-17T08:01:19;9.93;;;2.17;;
16892;SDS011;8563;52.242;9.098;2022-09-17T08:03:52;8.53;;;1.73;;
16892;SDS011;8563;52.242;9.098;2022-09-17T08:06:26;7.70;;;1.90;;
16892;SDS011;8563;52.242;9.098;2022-09-17T08:08:58;8.90;;;2.17;;
16892;SDS011;8563;52.242;9.098;2022-09-17T08:11:31;11.07;;;2.07;;
16892;SDS011;8563;52.242;9.098;2022-09-17T08:14:06;7.60;;;2.13;;
16892;SDS011;8563;52.242;9.098;2022-09-17T08:16:39;5.43;;;1.47;;
16892;SDS011;8563;52.242;9.098;2022-09-17T08:19:12;8.90;;;1.73;;
16892;SDS011;8563;52.242;9.098;2022-09-17T08:21:44;6.40;;;1.73;;
16892;SDS011;8563;52.242;9.098;2022-09-17T08:24:17;11.30;;;2.20;;
16892;SDS011;8563;52.242;9.098;2022-09-17T08:26:50;7.33;;;2.20;;
16892;SDS011;8563;52.242;9.098;2022-09-17T08:29:24;6.33;;;1.87;;
16892;SDS011;8563;52.242;9.098;2022-09-17T08:31:57;9.47;;;2.17;;
16892;SDS011;8563;52.242;9.098;2022-09-17T08:34:30;9.37;;;1.60;;
16892;SDS011;8563;52.242;9.098;2022-09-17T08:37:03;7.10;;;2.00;;
16892;SDS011;8563;52.242;9.098;2022-09-17T08:39:36;9.37;;;1.97;;
16892;SDS011;8563;52.242;9.098;2022-09-17T08:42:10;8.13;;;2.07;;
16892;SDS011;8563;52.242;9.098;2022-09-17T08:44:46;7.37;;;1.73;;
16892;SDS011;8563;52.242;9.098;2022-09-17T08:47:21;7.43;;;1.57;;
16892;SDS011;8563;52.242;9.098;2022-09-17T08:49:56;11.10;;;1.97;;
16892;SDS011;8563;52.242;9.098;2022-09-17T08:52:38;9.80;;;1.90;;
16892;SDS011;8563;52.242;9.098;2022-09-17T08:55:16;11.73;;;1.90;;
16892;SDS011;8563;52.242;9.098;2022-09-17T08:57:57;7.63;;;2.13;;
16892;SDS011;8563;52.242;9.098;2022-09-17T09:00:36;8.60;;;2.10;;
16892;SDS011;8563;52.242;9.098;2022-09-17T09:03:17;9.40;;;2.07;;
16892;SDS011;8563;52.242;9.098;2022-09-17T09:05:53;7.47;;;1.80;;
16892;SDS011;8563;52.242;9.098;2022-09-17T09:08:27;10.90;;;1.77;;
16892;SDS011;8563;52.242;9.098;2022-09-17T09:11:02;10.97;;;2.50;;
16892;SDS011;8563;52.242;9.098;2022-09-17T09:13:35;9.60;;;1.90;;
16892;SDS011;8563;52.242;9.098;2022-09-17T09:16:13;7.93;;;2.07;;
16892;SDS011;8563;52.242;9.098;2022-09-17T09:18:47;8.77;;;1.53;;
16892;SDS011;8563;52.242;9.098;2022-09-17T09:21:24;4.43;;;1.70;;
16892;SDS011;8563;52.242;9.098;2022-09-17T09:23:58;8.43;;;2.17;;
16892;SDS011;8563;52.242;9.098;2022-09-17T09:26:43;10.00;;;1.80;;
16892;SDS011;8563;52.242;9.098;2022-09-17T09:29:18;8.80;;;2.07;;
16892;SDS011;8563;52.242;9.098;2022-09-17T09:32:00;12.33;;;2.40;;
16892;SDS011;8563;52.242;9.098;2022-09-17T09:34:37;11.10;;;2.00;;
16892;SDS011;8563;52.242;9.098;2022-09-17T09:37:11;10.23;;;1.97;;
16892;SDS011;8563;52.242;9.098;2022-09-17T09:39:46;8.13;;;2.10;;
16892;SDS011;8563;52.242;9.098;2022-09-17T09:42:22;7.33;;;2.10;;
16892;SDS011;8563;52.242;9.098;2022-09-17T09:44:59;6.10;;;1.73;;
16892;SDS011;8563;52.242;9.098;2022-09-17T09:50:32;7.33;;;1.90;;
16892;SDS011;8563;52.242;9.098;2022-09-17T09:53:12;10.70;;;1.83;;
16892;SDS011;8563;52.242;9.098;2022-09-17T09:55:53;6.33;;;2.00;;
16892;SDS011;8563;52.242;9.098;2022-09-17T09:58:30;7.90;;;1.57;;
16892;SDS011;8563;52.242;9.098;2022-09-17T10:01:08;8.00;;;2.07;;
16892;SDS011;8563;52.242;9.098;2022-09-17T10:03:45;6.20;;;1.80;;
16892;SDS011;8563;52.242;9.098;2022-09-17T10:06:20;6.63;;;2.00;;
16892;SDS011;8563;52.242;9.098;2022-09-17T10:09:09;7.17;;;1.60;;
16892;SDS011;8563;52.242;9.098;2022-09-17T10:11:42;5.77;;;1.43;;
16892;SDS011;8563;52.242;9.098;2022-09-17T10:14:31;5.50;;;1.40;;
16892;SDS011;8563;52.242;9.098;2022-09-17T10:17:11;7.10;;;1.67;;
16892;SDS011;8563;52.242;9.098;2022-09-17T10:19:46;7.00;;;1.60;;
16892;SDS011;8563;52.242;9.098;2022-09-17T10:22:24;5.33;;;1.90;;
16892;SDS011;8563;52.242;9.098;2022-09-17T10:24:57;6.80;;;1.27;;
16892;SDS011;8563;52.242;9.098;2022-09-17T10:27:30;7.83;;;1.40;;
16892;SDS011;8563;52.242;9.098;2022-09-17T10:30:12;6.47;;;1.20;;
16892;SDS011;8563;52.242;9.098;2022-09-17T10:32:52;6.13;;;1.47;;
16892;SDS011;8563;52.242;9.098;2022-09-17T10:35:43;5.43;;;1.40;;
16892;SDS011;8563;52.242;9.098;2022-09-17T10:38:34;5.17;;;1.33;;
16892;SDS011;8563;52.242;9.098;2022-09-17T10:41:11;9.80;;;1.57;;
16892;SDS011;8563;52.242;9.098;2022-09-17T10:43:44;6.07;;;1.50;;
16892;SDS011;8563;52.242;9.098;2022-09-17T10:46:18;7.00;;;1.53;;
16892;SDS011;8563;52.242;9.098;2022-09-17T10:48:56;6.63;;;1.60;;
16892;SDS011;8563;52.242;9.098;2022-09-17T10:51:30;8.10;;;1.73;;
16892;SDS011;8563;52.242;9.098;2022-09-17T10:56:56;6.83;;;1.50;;
16892;SDS011;8563;52.242;9.098;2022-09-17T10:59:43;5.30;;;1.43;;
16892;SDS011;8563;52.242;9.098;2022-09-17T11:02:27;5.83;;;1.60;;
16892;SDS011;8563;52.242;9.098;2022-09-17T11:05:06;5.43;;;1.57;;
16892;SDS011;8563;52.242;9.098;2022-09-17T11:07:43;4.53;;;1.50;;
16892;SDS011;8563;52.242;9.098;2022-09-17T11:10:24;5.80;;;1.40;;
16892;SDS011;8563;52.242;9.098;2022-09-17T11:13:06;8.50;;;1.70;;
16892;SDS011;8563;52.242;9.098;2022-09-17T11:15:46;4.00;;;1.10;;
16892;SDS011;8563;52.242;9.098;2022-09-17T11:18:34;7.70;;;1.20;;
16892;SDS011;8563;52.242;9.098;2022-09-17T11:21:23;8.27;;;1.57;;
16892;SDS011;8563;52.242;9.098;2022-09-17T11:24:10;4.67;;;1.40;;
16892;SDS011;8563;52.242;9.098;2022-09-17T11:26:49;5.07;;;1.50;;
16892;SDS011;8563;52.242;9.098;2022-09-17T11:29:29;3.73;;;0.83;;
16892;SDS011;8563;52.242;9.098;2022-09-17T11:32:09;7.23;;;1.33;;
16892;SDS011;8563;52.242;9.098;2022-09-17T11:34:46;5.93;;;1.27;;
16892;SDS011;8563;52.242;9.098;2022-09-17T11:37:24;4.53;;;1.10;;
16892;SDS011;8563;52.242;9.098;2022-09-17T11:39:58;6.83;;;1.43;;
16892;SDS011;8563;52.242;9.098;2022-09-17T11:42:37;6.63;;;1.60;;
16892;SDS011;8563;52.242;9.098;2022-09-17T11:45:14;5.53;;;1.30;;
16892;SDS011;8563;52.242;9.098;2022-09-17T11:47:48;9.60;;;1.70;;
16892;SDS011;8563;52.242;9.098;2022-09-17T11:50:23;4.33;;;1.10;;
16892;SDS011;8563;52.242;9.098;2022-09-17T11:52:59;5.77;;;1.60;;
16892;SDS011;8563;52.242;9.098;2022-09-17T11:55:37;6.33;;;1.37;;
16892;SDS011;8563;52.242;9.098;2022-09-17T11:58:13;5.50;;;1.17;;
16892;SDS011;8563;52.242;9.098;2022-09-17T12:00:50;6.40;;;1.15;;
16892;SDS011;8563;52.242;9.098;2022-09-17T12:03:25;4.65;;;1.05;;
16892;SDS011;8563;52.242;9.098;2022-09-17T12:06:01;5.05;;;1.10;;
16892;SDS011;8563;52.242;9.098;2022-09-17T12:08:38;6.47;;;1.30;;
16892;SDS011;8563;52.242;9.098;2022-09-17T12:11:15;5.13;;;1.10;;
16892;SDS011;8563;52.242;9.098;2022-09-17T12:13:49;5.43;;;1.10;;
16892;SDS011;8563;52.242;9.098;2022-09-17T12:16:24;7.65;;;1.30;;
16892;SDS011;8563;52.242;9.098;2022-09-17T12:18:58;4.70;;;1.00;;
16892;SDS011;8563;52.242;9.098;2022-09-17T12:21:34;7.03;;;1.13;;
16892;SDS011;8563;52.242;9.098;2022-09-17T12:24:10;4.63;;;1.07;;
16892;SDS011;8563;52.242;9.098;2022-09-17T12:26:48;7.50;;;1.40;;
16892;SDS011;8563;52.242;9.098;2022-09-17T12:32:16;5.63;;;1.40;;
16892;SDS011;8563;52.242;9.098;2022-09-17T12:34:55;3.43;;;1.17;;
16892;SDS011;8563;52.242;9.098;2022-09-17T12:37:31;4.20;;;0.90;;
16892;SDS011;8563;52.242;9.098;2022-09-17T12:40:10;3.63;;;1.00;;
16892;SDS011;8563;52.242;9.098;2022-09-17T12:42:50;8.03;;;1.50;;
16892;SDS011;8563;52.242;9.098;2022-09-17T12:45:39;5.90;;;1.30;;
16892;SDS011;8563;52.242;9.098;2022-09-17T12:48:24;5.10;;;1.10;;
16892;SDS011;8563;52.242;9.098;2022-09-17T12:51:03;4.37;;;1.00;;
16892;SDS011;8563;52.242;9.098;2022-09-17T12:53:40;8.43;;;1.47;;
16892;SDS011;8563;52.242;9.098;2022-09-17T12:56:16;6.93;;;1.20;;
16892;SDS011;8563;52.242;9.098;2022-09-17T12:58:59;6.77;;;1.20;;
16892;SDS011;8563;52.242;9.098;2022-09-17T13:01:35;3.90;;;1.10;;
16892;SDS011;8563;52.242;9.098;2022-09-17T13:04:14;4.57;;;1.00;;
16892;SDS011;8563;52.242;9.098;2022-09-17T13:09:45;3.53;;;1.20;;
16892;SDS011;8563;52.242;9.098;2022-09-17T13:12:21;5.63;;;1.20;;
16892;SDS011;8563;52.242;9.098;2022-09-17T13:15:02;4.23;;;1.50;;
16892;SDS011;8563;52.242;9.098;2022-09-17T13:17:38;5.03;;;0.97;;
16892;SDS011;8563;52.242;9.098;2022-09-17T13:20:16;5.10;;;1.40;;
16892;SDS011;8563;52.242;9.098;2022-09-17T13:22:51;3.60;;;1.00;;
16892;SDS011;8563;52.242;9.098;2022-09-17T13:25:25;4.33;;;1.17;;
16892;SDS011;8563;52.242;9.098;2022-09-17T13:28:07;4.47;;;1.30;;
16892;SDS011;8563;52.242;9.098;2022-09-17T13:30:56;5.10;;;1.30;;
16892;SDS011;8563;52.242;9.098;2022-09-17T13:36:35;5.05;;;1.30;;
16892;SDS011;8563;52.242;9.098;2022-09-17T13:39:10;7.03;;;1.33;;
16892;SDS011;8563;52.242;9.098;2022-09-17T13:41:43;5.30;;;1.23;;
16892;SDS011;8563;52.242;9.098;2022-09-17T13:44:15;3.53;;;1.10;;
16892;SDS011;8563;52.242;9.098;2022-09-17T13:46:53;4.83;;;0.87;;
16892;SDS011;8563;52.242;9.098;2022-09-17T13:49:43;3.90;;;0.50;;
16892;SDS011;8563;52.242;9.098;2022-09-17T13:52:34;4.27;;;0.90;;
16892;SDS011;8563;52.242;9.098;2022-09-17T13:55:07;1.80;;;0.50;;
16892;SDS011;8563;52.242;9.098;2022-09-17T13:57:51;3.07;;;0.80;;
16892;SDS011;8563;52.242;9.098;2022-09-17T14:09:05;7.17;;;0.83;;
16892;SDS011;8563;52.242;9.098;2022-09-17T14:11:55;3.07;;;0.87;;
16892;SDS011;8563;52.242;9.098;2022-09-17T14:14:41;1.83;;;0.60;;
16892;SDS011;8563;52.242;9.098;2022-09-17T14:20:18;5.20;;;1.00;;
16892;SDS011;8563;52.242;9.098;2022-09-17T14:22:55;3.87;;;1.00;;
16892;SDS011;8563;52.242;9.098;2022-09-17T14:25:31;2.70;;;1.00;;
16892;SDS011;8563;52.242;9.098;2022-09-17T14:28:10;4.80;;;1.07;;
16892;SDS011;8563;52.242;9.098;2022-09-17T14:30:46;6.17;;;1.33;;
16892;SDS011;8563;52.242;9.098;2022-09-17T14:33:19;5.13;;;1.30;;
16892;SDS011;8563;52.242;9.098;2022-09-17T14:35:56;6.30;;;1.47;;
16892;SDS011;8563;52.242;9.098;2022-09-17T14:38:32;4.90;;;1.23;;
16892;SDS011;8563;52.242;9.098;2022-09-17T14:41:15;5.50;;;1.50;;
16892;SDS011;8563;52.242;9.098;2022-09-17T14:43:49;2.97;;;1.00;;
16892;SDS011;8563;52.242;9.098;2022-09-17T14:46:24;4.33;;;1.20;;
16892;SDS011;8563;52.242;9.098;2022-09-17T14:49:12;5.77;;;1.43;;
16892;SDS011;8563;52.242;9.098;2022-09-17T14:51:45;5.17;;;1.30;;
16892;SDS011;8563;52.242;9.098;2022-09-17T14:54:19;3.33;;;1.10;;
16892;SDS011;8563;52.242;9.098;2022-09-17T14:56:55;4.13;;;1.37;;
16892;SDS011;8563;52.242;9.098;2022-09-17T14:59:37;4.13;;;1.20;;
16892;SDS011;8563;52.242;9.098;2022-09-17T15:02:28;5.33;;;1.23;;
16892;SDS011;8563;52.242;9.098;2022-09-17T15:05:01;4.10;;;1.00;;
16892;SDS011;8563;52.242;9.098;2022-09-17T15:07:35;4.70;;;1.43;;
16892;SDS011;8563;52.242;9.098;2022-09-17T15:10:08;6.23;;;1.30;;
16892;SDS011;8563;52.242;9.098;2022-09-17T15:12:45;6.00;;;1.60;;
16892;SDS011;8563;52.242;9.098;2022-09-17T15:15:19;5.13;;;1.40;;
16892;SDS011;8563;52.242;9.098;2022-09-17T15:17:52;4.90;;;0.90;;
16892;SDS011;8563;52.242;9.098;2022-09-17T15:20:27;2.93;;;0.90;;
16892;SDS011;8563;52.242;9.098;2022-09-17T15:23:04;3.67;;;1.00;;
16892;SDS011;8563;52.242;9.098;2022-09-17T15:25:40;3.93;;;0.97;;
16892;SDS011;8563;52.242;9.098;2022-09-17T15:28:18;3.33;;;1.03;;
16892;SDS011;8563;52.242;9.098;2022-09-17T15:30:52;4.63;;;1.10;;
16892;SDS011;8563;52.242;9.098;2022-09-17T15:33:25;4.57;;;1.17;;
16892;SDS011;8563;52.242;9.098;2022-09-17T15:36:00;6.87;;;1.50;;
16892;SDS011;8563;52.242;9.098;2022-09-17T15:38:37;3.83;;;1.10;;
16892;SDS011;8563;52.242;9.098;2022-09-17T15:41:15;8.47;;;2.17;;
16892;SDS011;8563;52.242;9.098;2022-09-17T15:43:51;5.67;;;1.60;;
16892;SDS011;8563;52.242;9.098;2022-09-17T15:46:25;4.03;;;1.10;;
16892;SDS011;8563;52.242;9.098;2022-09-17T15:48:58;4.57;;;2.37;;
16892;SDS011;8563;52.242;9.098;2022-09-17T15:51:31;7.50;;;1.60;;
16892;SDS011;8563;52.242;9.098;2022-09-17T15:54:05;6.23;;;1.20;;
16892;SDS011;8563;52.242;9.098;2022-09-17T15:56:38;3.57;;;1.20;;
16892;SDS011;8563;52.242;9.098;2022-09-17T15:59:19;4.17;;;1.20;;
16892;SDS011;8563;52.242;9.098;2022-09-17T16:01:56;4.53;;;1.60;;
16892;SDS011;8563;52.242;9.098;2022-09-17T16:04:30;4.47;;;1.20;;
16892;SDS011;8563;52.242;9.098;2022-09-17T16:10:08;6.47;;;1.13;;
16892;SDS011;8563;52.242;9.098;2022-09-17T16:12:41;5.07;;;1.23;;
16892;SDS011;8563;52.242;9.098;2022-09-17T16:15:16;5.13;;;1.40;;
16892;SDS011;8563;52.242;9.098;2022-09-17T16:17:49;6.70;;;1.47;;
16892;SDS011;8563;52.242;9.098;2022-09-17T16:20:22;5.03;;;1.00;;
16892;SDS011;8563;52.242;9.098;2022-09-17T16:22:55;3.00;;;1.10;;